sensor_id;sensor_type;location;lat;lon;timestamp;temperature;humidity
17599;DHT22;8918;52.092;5.232;2022-10-23T00:01:37;12.10;99.90
17599;DHT22;8918;52.092;5.232;2022-10-23T00:04:18;12.10;99.90
17599;DHT22;8918;52.092;5.232;2022-10-23T00:06:44;12.10;99.90
17599;DHT22;8918;52.092;5.232;2022-10-23T00:09:12;12.10;99.90
17599;DHT22;8918;52.092;5.232;2022-10-23T00:11:38;12.10;99.90
17599;DHT22;8918;52.092;5.232;2022-10-23T00:14:07;12.10;99.90
17599;DHT22;8918;52.092;5.232;2022-10-23T00:16:33;12.00;99.90
17599;DHT22;8918;52.092;5.232;2022-10-23T00:18:59;12.00;99.90
17599;DHT22;8918;52.092;5.232;2022-10-23T00:21:25;12.00;99.90
17599;DHT22;8918;52.092;5.232;2022-10-23T00:23:51;12.00;99.90
17599;DHT22;8918;52.092;5.232;2022-10-23T00:26:17;12.00;99.90
17599;DHT22;8918;52.092;5.232;2022-10-23T00:28:44;12.00;99.90
17599;DHT22;8918;52.092;5.232;2022-10-23T00:31:10;12.00;99.90
17599;DHT22;8918;52.092;5.232;2022-10-23T00:33:36;11.90;99.90
17599;DHT22;8918;52.092;5.232;2022-10-23T00:36:06;11.90;99.90
17599;DHT22;8918;52.092;5.232;2022-10-23T00:38:32;12.00;99.90
17599;DHT22;8918;52.092;5.232;2022-10-23T00:40:58;12.00;99.90
17599;DHT22;8918;52.092;5.232;2022-10-23T00:43:25;11.90;99.90
17599;DHT22;8918;52.092;5.232;2022-10-23T00:45:51;11.90;99.90
17599;DHT22;8918;52.092;5.232;2022-10-23T00:48:17;11.90;99.90
17599;DHT22;8918;52.092;5.232;2022-10-23T00:50:43;11.90;99.90
17599;DHT22;8918;52.092;5.232;2022-10-23T00:53:12;11.90;99.90
17599;DHT22;8918;52.092;5.232;2022-10-23T00:55:39;11.90;99.90
17599;DHT22;8918;52.092;5.232;2022-10-23T00:58:10;11.90;99.90
17599;DHT22;8918;52.092;5.232;2022-10-23T01:00:50;11.90;99.90
17599;DHT22;8918;52.092;5.232;2022-10-23T01:03:18;11.90;99.90
17599;DHT22;8918;52.092;5.232;2022-10-23T01:05:52;11.90;99.90
17599;DHT22;8918;52.092;5.232;2022-10-23T01:08:46;11.90;99.90
17599;DHT22;8918;52.092;5.232;2022-10-23T01:11:21;11.90;99.90
17599;DHT22;8918;52.092;5.232;2022-10-23T01:13:55;11.90;99.90
17599;DHT22;8918;52.092;5.232;2022-10-23T01:16:30;11.90;99.90
17599;DHT22;8918;52.092;5.232;2022-10-23T01:19:05;12.00;99.90
17599;DHT22;8918;52.092;5.232;2022-10-23T01:21:53;12.00;99.90
17599;DHT22;8918;52.092;5.232;2022-10-23T01:27:17;12.00;99.90
17599;DHT22;8918;52.092;5.232;2022-10-23T01:29:47;12.00;99.90
17599;DHT22;8918;52.092;5.232;2022-10-23T01:32:21;12.00;99.90
17599;DHT22;8918;52.092;5.232;2022-10-23T01:34:56;12.00;99.90
17599;DHT22;8918;52.092;5.232;2022-10-23T01:37:31;12.10;99.90
17599;DHT22;8918;52.092;5.232;2022-10-23T01:40:01;12.10;99.90
17599;DHT22;8918;52.092;5.232;2022-10-23T01:42:34;12.00;99.90
17599;DHT22;8918;52.092;5.232;2022-10-23T01:45:06;12.00;99.90
17599;DHT22;8918;52.092;5.232;2022-10-23T01:47:34;12.00;99.90
17599;DHT22;8918;52.092;5.232;2022-10-23T01:50:02;12.00;99.90
17599;DHT22;8918;52.092;5.232;2022-10-23T01:52:28;12.00;99.90
17599;DHT22;8918;52.092;5.232;2022-10-23T01:54:58;12.00;99.90
17599;DHT22;8918;52.092;5.232;2022-10-23T01:57:25;12.00;99.90
17599;DHT22;8918;52.092;5.232;2022-10-23T02:00:01;12.00;99.90
17599;DHT22;8918;52.092;5.232;2022-10-23T02:02:29;11.90;99.90
17599;DHT22;8918;52.092;5.232;2022-10-23T02:05:01;11.90;99.90
17599;DHT22;8918;52.092;5.232;2022-10-23T02:07:28;11.90;99.90
17599;DHT22;8918;52.092;5.232;2022-10-23T02:09:54;11.90;99.90
17599;DHT22;8918;52.092;5.232;2022-10-23T02:12:57;11.90;99.90
17599;DHT22;8918;52.092;5.232;2022-10-23T02:15:30;11.90;99.90
17599;DHT22;8918;52.092;5.232;2022-10-23T02:23:16;11.90;99.90
17599;DHT22;8918;52.092;5.232;2022-10-23T02:25:49;11.90;99.90
17599;DHT22;8918;52.092;5.232;2022-10-23T02:28:23;11.90;99.90
17599;DHT22;8918;52.092;5.232;2022-10-23T02:30:51;11.90;99.90
17599;DHT22;8918;52.092;5.232;2022-10-23T02:33:18;11.90;99.90
17599;DHT22;8918;52.092;5.232;2022-10-23T02:35:45;11.90;99.90
17599;DHT22;8918;52.092;5.232;2022-10-23T02:38:36;11.90;99.90
17599;DHT22;8918;52.092;5.232;2022-10-23T02:41:32;11.90;99.90
17599;DHT22;8918;52.092;5.232;2022-10-23T02:52:41;11.90;99.90
17599;DHT22;8918;52.092;5.232;2022-10-23T02:55:25;11.80;99.90
17599;DHT22;8918;52.092;5.232;2022-10-23T03:00:36;11.80;99.90
17599;DHT22;8918;52.092;5.232;2022-10-23T03:03:09;11.80;99.90
17599;DHT22;8918;52.092;5.232;2022-10-23T03:05:37;11.80;99.90
17599;DHT22;8918;52.092;5.232;2022-10-23T03:08:07;11.80;99.90
17599;DHT22;8918;52.092;5.232;2022-10-23T03:10:34;11.80;99.90
17599;DHT22;8918;52.092;5.232;2022-10-23T03:12:59;11.80;99.90
17599;DHT22;8918;52.092;5.232;2022-10-23T03:15:25;11.80;99.90
17599;DHT22;8918;52.092;5.232;2022-10-23T03:17:50;11.80;99.90
17599;DHT22;8918;52.092;5.232;2022-10-23T03:20:16;11.90;99.90
17599;DHT22;8918;52.092;5.232;2022-10-23T03:22:42;11.90;99.90
17599;DHT22;8918;52.092;5.232;2022-10-23T03:25:08;11.90;99.90
17599;DHT22;8918;52.092;5.232;2022-10-23T03:27:34;11.90;99.90
17599;DHT22;8918;52.092;5.232;2022-10-23T03:30:00;11.90;99.90
17599;DHT22;8918;52.092;5.232;2022-10-23T03:32:25;11.90;99.90
17599;DHT22;8918;52.092;5.232;2022-10-23T03:34:51;11.90;99.90
17599;DHT22;8918;52.092;5.232;2022-10-23T03:37:17;11.90;99.90
17599;DHT22;8918;52.092;5.232;2022-10-23T03:39:42;11.90;99.90
17599;DHT22;8918;52.092;5.232;2022-10-23T03:42:08;11.90;99.90
17599;DHT22;8918;52.092;5.232;2022-10-23T03:44:33;11.90;99.90
17599;DHT22;8918;52.092;5.232;2022-10-23T03:46:59;11.90;99.90
17599;DHT22;8918;52.092;5.232;2022-10-23T03:49:25;11.90;99.90
17599;DHT22;8918;52.092;5.232;2022-10-23T03:51:50;11.90;99.90
17599;DHT22;8918;52.092;5.232;2022-10-23T03:54:19;11.90;99.90
17599;DHT22;8918;52.092;5.232;2022-10-23T03:56:45;11.90;99.90
17599;DHT22;8918;52.092;5.232;2022-10-23T03:59:11;11.80;99.90
17599;DHT22;8918;52.092;5.232;2022-10-23T04:01:36;11.80;99.90
17599;DHT22;8918;52.092;5.232;2022-10-23T04:04:02;11.80;99.90
17599;DHT22;8918;52.092;5.232;2022-10-23T04:06:27;11.80;99.90
17599;DHT22;8918;52.092;5.232;2022-10-23T04:08:53;11.80;99.90
17599;DHT22;8918;52.092;5.232;2022-10-23T04:11:18;11.80;99.90
17599;DHT22;8918;52.092;5.232;2022-10-23T04:13:44;11.80;99.90
17599;DHT22;8918;52.092;5.232;2022-10-23T04:16:10;11.80;99.90
17599;DHT22;8918;52.092;5.232;2022-10-23T04:18:36;11.80;99.90
17599;DHT22;8918;52.092;5.232;2022-10-23T04:21:02;11.80;99.90
17599;DHT22;8918;52.092;5.232;2022-10-23T04:23:28;11.80;99.90
17599;DHT22;8918;52.092;5.232;2022-10-23T04:25:56;11.90;99.90
17599;DHT22;8918;52.092;5.232;2022-10-23T04:28:22;11.80;99.90
17599;DHT22;8918;52.092;5.232;2022-10-23T04:30:48;11.80;99.90
17599;DHT22;8918;52.092;5.232;2022-10-23T04:33:13;11.80;99.90
17599;DHT22;8918;52.092;5.232;2022-10-23T04:35:39;11.80;99.90
17599;DHT22;8918;52.092;5.232;2022-10-23T04:38:04;11.90;99.90
17599;DHT22;8918;52.092;5.232;2022-10-23T04:40:30;11.90;99.90
17599;DHT22;8918;52.092;5.232;2022-10-23T04:42:55;11.90;99.90
17599;DHT22;8918;52.092;5.232;2022-10-23T04:45:21;11.90;99.90
17599;DHT22;8918;52.092;5.232;2022-10-23T04:47:46;11.90;99.90
17599;DHT22;8918;52.092;5.232;2022-10-23T04:50:12;11.90;99.90
17599;DHT22;8918;52.092;5.232;2022-10-23T04:52:38;11.90;99.90
17599;DHT22;8918;52.092;5.232;2022-10-23T04:55:05;11.90;99.90
17599;DHT22;8918;52.092;5.232;2022-10-23T04:57:31;11.90;99.90
17599;DHT22;8918;52.092;5.232;2022-10-23T04:59:56;11.90;99.90
17599;DHT22;8918;52.092;5.232;2022-10-23T05:02:22;11.90;99.90
17599;DHT22;8918;52.092;5.232;2022-10-23T05:04:49;11.90;99.90
17599;DHT22;8918;52.092;5.232;2022-10-23T05:07:14;11.90;99.90
17599;DHT22;8918;52.092;5.232;2022-10-23T05:09:40;11.90;99.90
17599;DHT22;8918;52.092;5.232;2022-10-23T05:12:06;11.90;99.90
17599;DHT22;8918;52.092;5.232;2022-10-23T05:14:31;11.80;99.90
17599;DHT22;8918;52.092;5.232;2022-10-23T05:17:02;11.90;99.90
17599;DHT22;8918;52.092;5.232;2022-10-23T05:19:34;11.90;99.90
17599;DHT22;8918;52.092;5.232;2022-10-23T05:22:03;11.90;99.90
17599;DHT22;8918;52.092;5.232;2022-10-23T05:24:29;11.90;99.90
17599;DHT22;8918;52.092;5.232;2022-10-23T05:26:55;12.00;99.90
17599;DHT22;8918;52.092;5.232;2022-10-23T05:29:21;12.00;99.90
17599;DHT22;8918;52.092;5.232;2022-10-23T05:31:50;12.00;99.90
17599;DHT22;8918;52.092;5.232;2022-10-23T05:34:18;12.00;99.90
17599;DHT22;8918;52.092;5.232;2022-10-23T05:36:45;12.00;99.90
17599;DHT22;8918;52.092;5.232;2022-10-23T05:39:11;12.10;99.90
17599;DHT22;8918;52.092;5.232;2022-10-23T05:41:36;12.10;99.90
17599;DHT22;8918;52.092;5.232;2022-10-23T05:44:02;12.10;99.90
17599;DHT22;8918;52.092;5.232;2022-10-23T05:46:28;12.20;99.90
17599;DHT22;8918;52.092;5.232;2022-10-23T05:48:53;12.10;99.90
17599;DHT22;8918;52.092;5.232;2022-10-23T05:51:20;12.20;99.90
17599;DHT22;8918;52.092;5.232;2022-10-23T05:53:50;12.20;99.90
17599;DHT22;8918;52.092;5.232;2022-10-23T05:56:15;12.20;99.90
17599;DHT22;8918;52.092;5.232;2022-10-23T05:58:41;12.20;99.90
17599;DHT22;8918;52.092;5.232;2022-10-23T06:01:08;12.30;99.90
17599;DHT22;8918;52.092;5.232;2022-10-23T06:03:34;12.30;99.90
17599;DHT22;8918;52.092;5.232;2022-10-23T06:06:00;12.30;99.90
17599;DHT22;8918;52.092;5.232;2022-10-23T06:08:25;12.30;99.90
17599;DHT22;8918;52.092;5.232;2022-10-23T06:10:51;12.40;99.90
17599;DHT22;8918;52.092;5.232;2022-10-23T06:13:16;12.40;99.90
17599;DHT22;8918;52.092;5.232;2022-10-23T06:15:42;12.40;99.90
17599;DHT22;8918;52.092;5.232;2022-10-23T06:18:08;12.40;99.90
17599;DHT22;8918;52.092;5.232;2022-10-23T06:20:37;12.40;99.90
17599;DHT22;8918;52.092;5.232;2022-10-23T06:23:04;12.40;99.90
17599;DHT22;8918;52.092;5.232;2022-10-23T06:25:30;12.50;99.90
17599;DHT22;8918;52.092;5.232;2022-10-23T06:27:56;12.50;99.90
17599;DHT22;8918;52.092;5.232;2022-10-23T06:30:21;12.50;99.90
17599;DHT22;8918;52.092;5.232;2022-10-23T06:32:47;12.50;99.90
17599;DHT22;8918;52.092;5.232;2022-10-23T06:35:13;12.60;99.90
17599;DHT22;8918;52.092;5.232;2022-10-23T06:37:38;12.60;99.90
17599;DHT22;8918;52.092;5.232;2022-10-23T06:40:05;12.70;99.90
17599;DHT22;8918;52.092;5.232;2022-10-23T06:42:30;12.70;99.90
17599;DHT22;8918;52.092;5.232;2022-10-23T06:44:56;12.70;99.90
17599;DHT22;8918;52.092;5.232;2022-10-23T06:47:22;12.80;99.90
17599;DHT22;8918;52.092;5.232;2022-10-23T06:49:47;12.80;99.90
17599;DHT22;8918;52.092;5.232;2022-10-23T06:52:13;12.80;99.90
17599;DHT22;8918;52.092;5.232;2022-10-23T06:54:38;12.90;99.90
17599;DHT22;8918;52.092;5.232;2022-10-23T06:57:04;13.00;99.90
17599;DHT22;8918;52.092;5.232;2022-10-23T06:59:29;13.00;99.90
17599;DHT22;8918;52.092;5.232;2022-10-23T07:01:55;13.00;99.90
17599;DHT22;8918;52.092;5.232;2022-10-23T07:04:20;13.10;99.90
17599;DHT22;8918;52.092;5.232;2022-10-23T07:06:46;13.10;99.90
17599;DHT22;8918;52.092;5.232;2022-10-23T07:09:11;13.10;99.90
17599;DHT22;8918;52.092;5.232;2022-10-23T07:11:37;13.10;99.90
17599;DHT22;8918;52.092;5.232;2022-10-23T07:14:03;13.10;99.90
17599;DHT22;8918;52.092;5.232;2022-10-23T07:16:28;13.20;99.90
17599;DHT22;8918;52.092;5.232;2022-10-23T07:18:57;13.20;99.90
17599;DHT22;8918;52.092;5.232;2022-10-23T07:21:34;13.20;99.90
17599;DHT22;8918;52.092;5.232;2022-10-23T07:24:00;13.20;99.90
17599;DHT22;8918;52.092;5.232;2022-10-23T07:26:26;13.30;99.90
17599;DHT22;8918;52.092;5.232;2022-10-23T07:28:53;13.30;99.90
17599;DHT22;8918;52.092;5.232;2022-10-23T07:31:24;13.30;99.90
17599;DHT22;8918;52.092;5.232;2022-10-23T07:33:50;13.40;99.90
17599;DHT22;8918;52.092;5.232;2022-10-23T07:36:16;13.40;99.90
17599;DHT22;8918;52.092;5.232;2022-10-23T07:38:42;13.40;99.90
17599;DHT22;8918;52.092;5.232;2022-10-23T07:41:08;13.40;99.90
17599;DHT22;8918;52.092;5.232;2022-10-23T07:43:34;13.50;99.90
17599;DHT22;8918;52.092;5.232;2022-10-23T07:46:00;13.50;99.90
17599;DHT22;8918;52.092;5.232;2022-10-23T07:48:26;13.50;99.90
17599;DHT22;8918;52.092;5.232;2022-10-23T07:50:53;13.60;99.90
17599;DHT22;8918;52.092;5.232;2022-10-23T07:53:22;13.60;99.90
17599;DHT22;8918;52.092;5.232;2022-10-23T07:56:00;13.60;99.90
17599;DHT22;8918;52.092;5.232;2022-10-23T07:58:28;13.60;99.90
17599;DHT22;8918;52.092;5.232;2022-10-23T08:00:59;13.70;99.90
17599;DHT22;8918;52.092;5.232;2022-10-23T08:03:27;13.70;99.90
17599;DHT22;8918;52.092;5.232;2022-10-23T08:05:53;13.70;99.90
17599;DHT22;8918;52.092;5.232;2022-10-23T08:08:20;13.80;99.90
17599;DHT22;8918;52.092;5.232;2022-10-23T08:10:47;13.80;99.90
17599;DHT22;8918;52.092;5.232;2022-10-23T08:13:12;13.80;99.90
17599;DHT22;8918;52.092;5.232;2022-10-23T08:15:39;13.80;99.90
17599;DHT22;8918;52.092;5.232;2022-10-23T08:18:05;13.90;99.90
17599;DHT22;8918;52.092;5.232;2022-10-23T08:20:31;13.90;99.90
17599;DHT22;8918;52.092;5.232;2022-10-23T08:22:58;13.90;99.90
17599;DHT22;8918;52.092;5.232;2022-10-23T08:25:24;14.00;99.90
17599;DHT22;8918;52.092;5.232;2022-10-23T08:27:49;14.00;99.90
17599;DHT22;8918;52.092;5.232;2022-10-23T08:30:15;14.00;99.90
17599;DHT22;8918;52.092;5.232;2022-10-23T08:32:40;14.10;99.90
17599;DHT22;8918;52.092;5.232;2022-10-23T08:35:06;14.10;99.90
17599;DHT22;8918;52.092;5.232;2022-10-23T08:37:32;14.10;99.90
17599;DHT22;8918;52.092;5.232;2022-10-23T08:39:57;14.10;99.90
17599;DHT22;8918;52.092;5.232;2022-10-23T08:42:25;14.20;99.90
17599;DHT22;8918;52.092;5.232;2022-10-23T08:45:06;14.20;99.90
17599;DHT22;8918;52.092;5.232;2022-10-23T08:47:42;14.20;99.90
17599;DHT22;8918;52.092;5.232;2022-10-23T08:50:27;14.20;99.90
17599;DHT22;8918;52.092;5.232;2022-10-23T08:55:49;14.30;99.90
17599;DHT22;8918;52.092;5.232;2022-10-23T09:00:56;14.40;99.90
17599;DHT22;8918;52.092;5.232;2022-10-23T09:03:22;14.40;99.90
17599;DHT22;8918;52.092;5.232;2022-10-23T09:14:26;14.60;99.90
17599;DHT22;8918;52.092;5.232;2022-10-23T09:17:06;14.60;99.90
17599;DHT22;8918;52.092;5.232;2022-10-23T09:19:34;14.70;99.90
17599;DHT22;8918;52.092;5.232;2022-10-23T09:22:00;14.70;99.90
17599;DHT22;8918;52.092;5.232;2022-10-23T09:24:26;14.70;99.90
17599;DHT22;8918;52.092;5.232;2022-10-23T09:26:56;14.70;99.90
17599;DHT22;8918;52.092;5.232;2022-10-23T09:29:26;14.70;99.90
17599;DHT22;8918;52.092;5.232;2022-10-23T09:31:55;14.70;99.90
17599;DHT22;8918;52.092;5.232;2022-10-23T09:34:25;14.70;99.90
17599;DHT22;8918;52.092;5.232;2022-10-23T09:37:00;14.70;99.90
17599;DHT22;8918;52.092;5.232;2022-10-23T09:39:34;14.70;99.90
17599;DHT22;8918;52.092;5.232;2022-10-23T09:42:01;14.70;99.90
17599;DHT22;8918;52.092;5.232;2022-10-23T09:44:47;14.70;99.90
17599;DHT22;8918;52.092;5.232;2022-10-23T09:47:17;14.70;99.90
17599;DHT22;8918;52.092;5.232;2022-10-23T09:49:50;14.70;99.90
17599;DHT22;8918;52.092;5.232;2022-10-23T09:55:02;14.80;99.90
17599;DHT22;8918;52.092;5.232;2022-10-23T09:57:43;14.80;99.90
17599;DHT22;8918;52.092;5.232;2022-10-23T10:02:52;14.80;99.90
17599;DHT22;8918;52.092;5.232;2022-10-23T10:08:04;14.90;99.90
17599;DHT22;8918;52.092;5.232;2022-10-23T10:10:39;14.90;99.90
17599;DHT22;8918;52.092;5.232;2022-10-23T10:13:36;15.00;99.90
17599;DHT22;8918;52.092;5.232;2022-10-23T10:16:05;15.00;99.90
17599;DHT22;8918;52.092;5.232;2022-10-23T10:18:49;15.00;99.90
17599;DHT22;8918;52.092;5.232;2022-10-23T10:21:26;15.00;99.90
17599;DHT22;8918;52.092;5.232;2022-10-23T10:24:07;15.00;99.90
17599;DHT22;8918;52.092;5.232;2022-10-23T10:26:40;15.00;99.90
17599;DHT22;8918;52.092;5.232;2022-10-23T10:29:14;15.00;99.90
17599;DHT22;8918;52.092;5.232;2022-10-23T10:31:51;15.10;99.90
17599;DHT22;8918;52.092;5.232;2022-10-23T10:34:29;15.10;99.90
17599;DHT22;8918;52.092;5.232;2022-10-23T10:37:13;15.20;99.90
17599;DHT22;8918;52.092;5.232;2022-10-23T10:40:02;15.20;99.90
17599;DHT22;8918;52.092;5.232;2022-10-23T10:45:32;15.30;99.90
17599;DHT22;8918;52.092;5.232;2022-10-23T10:48:22;15.30;99.90
17599;DHT22;8918;52.092;5.232;2022-10-23T10:51:01;15.40;99.90
17599;DHT22;8918;52.092;5.232;2022-10-23T10:53:48;15.40;99.90
17599;DHT22;8918;52.092;5.232;2022-10-23T10:56:18;15.40;99.90
17599;DHT22;8918;52.092;5.232;2022-10-23T10:58:55;15.40;99.90
17599;DHT22;8918;52.092;5.232;2022-10-23T11:01:27;15.40;99.90
17599;DHT22;8918;52.092;5.232;2022-10-23T11:06:40;15.60;99.90
17599;DHT22;8918;52.092;5.232;2022-10-23T11:09:24;15.60;99.90
17599;DHT22;8918;52.092;5.232;2022-10-23T11:11:51;15.70;99.90
17599;DHT22;8918;52.092;5.232;2022-10-23T11:14:24;15.80;99.90
17599;DHT22;8918;52.092;5.232;2022-10-23T11:17:01;15.80;99.90
17599;DHT22;8918;52.092;5.232;2022-10-23T11:19:40;15.80;99.90
17599;DHT22;8918;52.092;5.232;2022-10-23T11:22:40;15.80;99.90
17599;DHT22;8918;52.092;5.232;2022-10-23T11:25:39;15.90;99.90
17599;DHT22;8918;52.092;5.232;2022-10-23T11:36:20;16.20;99.90
17599;DHT22;8918;52.092;5.232;2022-10-23T11:39:06;16.40;99.90
17599;DHT22;8918;52.092;5.232;2022-10-23T11:41:48;16.50;99.90
17599;DHT22;8918;52.092;5.232;2022-10-23T11:44:43;16.70;99.90
17599;DHT22;8918;52.092;5.232;2022-10-23T11:47:29;16.90;99.90
17599;DHT22;8918;52.092;5.232;2022-10-23T11:52:35;17.30;99.90
17599;DHT22;8918;52.092;5.232;2022-10-23T11:55:14;17.40;99.90
17599;DHT22;8918;52.092;5.232;2022-10-23T11:57:40;17.50;99.90
17599;DHT22;8918;52.092;5.232;2022-10-23T12:00:20;17.60;99.90
17599;DHT22;8918;52.092;5.232;2022-10-23T12:02:50;17.60;99.90
17599;DHT22;8918;52.092;5.232;2022-10-23T12:05:32;17.70;99.90
17599;DHT22;8918;52.092;5.232;2022-10-23T12:08:01;17.70;99.90
17599;DHT22;8918;52.092;5.232;2022-10-23T12:10:35;17.70;99.90
17599;DHT22;8918;52.092;5.232;2022-10-23T12:16:01;17.70;99.90
17599;DHT22;8918;52.092;5.232;2022-10-23T12:18:26;17.70;99.90
17599;DHT22;8918;52.092;5.232;2022-10-23T12:20:57;17.70;99.90
17599;DHT22;8918;52.092;5.232;2022-10-23T12:23:32;17.70;99.90
17599;DHT22;8918;52.092;5.232;2022-10-23T12:32:32;17.60;99.90
17599;DHT22;8918;52.092;5.232;2022-10-23T12:40:00;17.60;99.90
17599;DHT22;8918;52.092;5.232;2022-10-23T12:42:27;17.60;99.90
17599;DHT22;8918;52.092;5.232;2022-10-23T12:44:58;17.60;99.90
17599;DHT22;8918;52.092;5.232;2022-10-23T12:47:25;17.60;99.90
17599;DHT22;8918;52.092;5.232;2022-10-23T12:49:50;17.70;99.90
17599;DHT22;8918;52.092;5.232;2022-10-23T12:52:18;17.60;99.90
17599;DHT22;8918;52.092;5.232;2022-10-23T12:54:45;17.60;99.90
17599;DHT22;8918;52.092;5.232;2022-10-23T12:57:24;17.60;99.90
17599;DHT22;8918;52.092;5.232;2022-10-23T12:59:58;17.60;99.90
17599;DHT22;8918;52.092;5.232;2022-10-23T13:02:27;17.70;99.90
17599;DHT22;8918;52.092;5.232;2022-10-23T13:04:55;17.70;99.90
17599;DHT22;8918;52.092;5.232;2022-10-23T13:07:26;17.70;99.90
17599;DHT22;8918;52.092;5.232;2022-10-23T13:09:53;17.70;99.90
17599;DHT22;8918;52.092;5.232;2022-10-23T13:12:52;17.70;99.90
17599;DHT22;8918;52.092;5.232;2022-10-23T13:15:19;17.70;99.90
17599;DHT22;8918;52.092;5.232;2022-10-23T13:18:05;17.70;99.90
17599;DHT22;8918;52.092;5.232;2022-10-23T13:20:34;17.80;99.90
17599;DHT22;8918;52.092;5.232;2022-10-23T13:23:14;17.70;99.90
17599;DHT22;8918;52.092;5.232;2022-10-23T13:25:41;17.70;99.90
17599;DHT22;8918;52.092;5.232;2022-10-23T13:30:34;17.70;99.90
17599;DHT22;8918;52.092;5.232;2022-10-23T13:33:22;17.70;99.90
17599;DHT22;8918;52.092;5.232;2022-10-23T13:38:43;17.70;99.90
17599;DHT22;8918;52.092;5.232;2022-10-23T13:41:13;17.80;99.90
17599;DHT22;8918;52.092;5.232;2022-10-23T13:43:40;17.80;99.90
17599;DHT22;8918;52.092;5.232;2022-10-23T13:46:18;17.80;99.90
17599;DHT22;8918;52.092;5.232;2022-10-23T13:48:45;17.80;99.90
17599;DHT22;8918;52.092;5.232;2022-10-23T13:51:22;17.80;99.90
17599;DHT22;8918;52.092;5.232;2022-10-23T13:53:48;17.90;99.90
17599;DHT22;8918;52.092;5.232;2022-10-23T13:56:17;17.90;99.90
17599;DHT22;8918;52.092;5.232;2022-10-23T13:58:43;17.90;99.90
17599;DHT22;8918;52.092;5.232;2022-10-23T14:01:35;17.90;99.90
17599;DHT22;8918;52.092;5.232;2022-10-23T14:04:02;17.90;99.90
17599;DHT22;8918;52.092;5.232;2022-10-23T14:06:31;17.90;99.90
17599;DHT22;8918;52.092;5.232;2022-10-23T14:08:57;18.00;99.90
17599;DHT22;8918;52.092;5.232;2022-10-23T14:11:23;18.00;99.90
17599;DHT22;8918;52.092;5.232;2022-10-23T14:13:49;18.00;99.90
17599;DHT22;8918;52.092;5.232;2022-10-23T14:16:17;18.00;99.90
17599;DHT22;8918;52.092;5.232;2022-10-23T14:18:43;18.00;99.90
17599;DHT22;8918;52.092;5.232;2022-10-23T14:21:11;18.00;99.90
17599;DHT22;8918;52.092;5.232;2022-10-23T14:23:37;18.00;99.90
17599;DHT22;8918;52.092;5.232;2022-10-23T14:26:03;18.10;99.90
17599;DHT22;8918;52.092;5.232;2022-10-23T14:28:29;18.10;99.90
17599;DHT22;8918;52.092;5.232;2022-10-23T14:30:55;18.20;99.90
17599;DHT22;8918;52.092;5.232;2022-10-23T14:33:20;18.30;99.90
17599;DHT22;8918;52.092;5.232;2022-10-23T14:35:49;18.30;99.90
17599;DHT22;8918;52.092;5.232;2022-10-23T14:38:14;18.40;99.90
17599;DHT22;8918;52.092;5.232;2022-10-23T14:40:40;18.40;99.90
17599;DHT22;8918;52.092;5.232;2022-10-23T14:43:06;18.40;99.90
17599;DHT22;8918;52.092;5.232;2022-10-23T14:45:31;18.40;99.90
17599;DHT22;8918;52.092;5.232;2022-10-23T14:47:57;18.30;99.90
17599;DHT22;8918;52.092;5.232;2022-10-23T14:50:25;18.30;99.90
17599;DHT22;8918;52.092;5.232;2022-10-23T14:52:51;18.30;99.90
17599;DHT22;8918;52.092;5.232;2022-10-23T14:55:16;18.30;99.90
17599;DHT22;8918;52.092;5.232;2022-10-23T14:57:42;18.40;99.90
17599;DHT22;8918;52.092;5.232;2022-10-23T15:00:08;18.30;99.90
17599;DHT22;8918;52.092;5.232;2022-10-23T15:02:34;18.20;99.90
17599;DHT22;8918;52.092;5.232;2022-10-23T15:04:59;18.30;99.90
17599;DHT22;8918;52.092;5.232;2022-10-23T15:07:25;18.20;99.90
17599;DHT22;8918;52.092;5.232;2022-10-23T15:09:50;18.20;99.90
17599;DHT22;8918;52.092;5.232;2022-10-23T15:12:17;18.10;99.90
17599;DHT22;8918;52.092;5.232;2022-10-23T15:14:42;18.10;99.90
17599;DHT22;8918;52.092;5.232;2022-10-23T15:17:08;18.10;99.90
17599;DHT22;8918;52.092;5.232;2022-10-23T15:19:33;18.00;99.90
17599;DHT22;8918;52.092;5.232;2022-10-23T15:21:59;18.00;99.90
17599;DHT22;8918;52.092;5.232;2022-10-23T15:24:25;18.00;99.90
17599;DHT22;8918;52.092;5.232;2022-10-23T15:26:51;17.90;99.90
17599;DHT22;8918;52.092;5.232;2022-10-23T15:29:17;17.90;99.90
17599;DHT22;8918;52.092;5.232;2022-10-23T15:32:02;17.90;99.90
17599;DHT22;8918;52.092;5.232;2022-10-23T15:34:29;17.80;99.90
17599;DHT22;8918;52.092;5.232;2022-10-23T15:36:57;17.80;99.90
17599;DHT22;8918;52.092;5.232;2022-10-23T15:39:25;17.80;99.90
17599;DHT22;8918;52.092;5.232;2022-10-23T15:41:55;17.80;99.90
17599;DHT22;8918;52.092;5.232;2022-10-23T15:44:23;17.90;99.90
17599;DHT22;8918;52.092;5.232;2022-10-23T15:46:50;17.80;99.90
17599;DHT22;8918;52.092;5.232;2022-10-23T15:49:16;17.80;99.90
17599;DHT22;8918;52.092;5.232;2022-10-23T15:51:42;17.80;99.90
17599;DHT22;8918;52.092;5.232;2022-10-23T15:54:10;17.70;99.90
17599;DHT22;8918;52.092;5.232;2022-10-23T15:56:40;17.70;99.90
17599;DHT22;8918;52.092;5.232;2022-10-23T15:59:06;17.60;99.90
17599;DHT22;8918;52.092;5.232;2022-10-23T16:01:32;17.60;99.90
17599;DHT22;8918;52.092;5.232;2022-10-23T16:03:57;17.60;99.90
17599;DHT22;8918;52.092;5.232;2022-10-23T16:06:23;17.70;99.90
17599;DHT22;8918;52.092;5.232;2022-10-23T16:08:48;17.60;99.90
17599;DHT22;8918;52.092;5.232;2022-10-23T16:11:20;17.60;99.90
17599;DHT22;8918;52.092;5.232;2022-10-23T16:13:46;17.60;99.90
17599;DHT22;8918;52.092;5.232;2022-10-23T16:16:12;17.60;99.90
17599;DHT22;8918;52.092;5.232;2022-10-23T16:18:38;17.60;99.90
17599;DHT22;8918;52.092;5.232;2022-10-23T16:21:04;17.70;99.90
17599;DHT22;8918;52.092;5.232;2022-10-23T16:23:30;17.70;99.90
17599;DHT22;8918;52.092;5.232;2022-10-23T16:26:03;17.70;99.90
17599;DHT22;8918;52.092;5.232;2022-10-23T16:28:29;17.70;99.90
17599;DHT22;8918;52.092;5.232;2022-10-23T16:30:55;17.70;99.90
17599;DHT22;8918;52.092;5.232;2022-10-23T16:33:20;17.60;99.90
17599;DHT22;8918;52.092;5.232;2022-10-23T16:35:46;17.60;99.90
17599;DHT22;8918;52.092;5.232;2022-10-23T16:38:11;17.50;99.90
17599;DHT22;8918;52.092;5.232;2022-10-23T16:40:37;17.60;99.90
17599;DHT22;8918;52.092;5.232;2022-10-23T16:43:03;17.60;99.90
17599;DHT22;8918;52.092;5.232;2022-10-23T16:45:28;17.60;99.90
17599;DHT22;8918;52.092;5.232;2022-10-23T16:47:54;17.60;99.90
17599;DHT22;8918;52.092;5.232;2022-10-23T16:50:19;17.50;99.90
17599;DHT22;8918;52.092;5.232;2022-10-23T16:52:45;17.50;99.90
17599;DHT22;8918;52.092;5.232;2022-10-23T16:55:11;17.40;99.90
17599;DHT22;8918;52.092;5.232;2022-10-23T16:57:36;17.40;99.90
17599;DHT22;8918;52.092;5.232;2022-10-23T17:00:03;17.40;99.90
17599;DHT22;8918;52.092;5.232;2022-10-23T17:02:29;17.30;99.90
17599;DHT22;8918;52.092;5.232;2022-10-23T17:04:54;17.40;99.90
17599;DHT22;8918;52.092;5.232;2022-10-23T17:07:20;17.40;99.90
17599;DHT22;8918;52.092;5.232;2022-10-23T17:09:47;17.40;99.90
17599;DHT22;8918;52.092;5.232;2022-10-23T17:12:14;17.40;99.90
17599;DHT22;8918;52.092;5.232;2022-10-23T17:14:40;17.40;99.90
17599;DHT22;8918;52.092;5.232;2022-10-23T17:17:06;17.30;99.90